createdAt,value
2023-05-09T00:03:44.613Z,12.80
2023-05-09T00:07:48.835Z,12.90
2023-05-09T00:11:50.822Z,13.00
2023-05-09T00:15:57.290Z,13.00
2023-05-09T00:20:01.431Z,12.90
2023-05-09T00:24:03.521Z,12.90
2023-05-09T00:28:05.611Z,12.70
2023-05-09T00:32:07.788Z,12.50
2023-05-09T00:36:09.762Z,12.50
2023-05-09T00:40:12.056Z,12.50
2023-05-09T00:44:14.466Z,12.50
2023-05-09T00:48:17.061Z,12.50
2023-05-09T00:52:23.297Z,12.60
2023-05-09T00:56:25.844Z,12.60
2023-05-09T01:00:28.399Z,12.60
2023-05-09T01:04:30.588Z,12.30
2023-05-09T01:08:55.133Z,12.30
2023-05-09T01:13:15.883Z,12.10
2023-05-09T01:17:29.689Z,12.20
2023-05-09T01:21:33.308Z,12.20
2023-05-09T01:25:57.110Z,12.20
2023-05-09T01:30:02.028Z,12.10
2023-05-09T01:34:06.612Z,12.10
2023-05-09T01:38:13.437Z,12.00
2023-05-09T01:42:18.697Z,11.90
2023-05-09T01:46:22.733Z,11.80
2023-05-09T01:50:25.896Z,11.80
2023-05-09T01:54:28.993Z,11.70
2023-05-09T01:58:33.542Z,11.70
2023-05-09T02:02:36.383Z,11.60
2023-05-09T02:06:40.079Z,11.60
2023-05-09T02:10:42.656Z,11.60
2023-05-09T02:14:44.446Z,11.50
2023-05-09T02:18:47.095Z,11.40
2023-05-09T02:22:49.135Z,11.20
2023-05-09T02:26:51.297Z,11.00
2023-05-09T02:30:56.214Z,11.00
2023-05-09T02:34:59.531Z,11.10
2023-05-09T02:39:02.068Z,11.20
2023-05-09T02:43:04.778Z,11.20
2023-05-09T02:47:07.599Z,10.70
2023-05-09T02:51:09.715Z,10.80
2023-05-09T02:55:12.454Z,11.00
2023-05-09T02:59:18.348Z,11.00
2023-05-09T03:03:22.209Z,11.00
2023-05-09T03:07:25.655Z,11.20
2023-05-09T03:11:27.881Z,11.20
2023-05-09T03:15:29.792Z,11.10
2023-05-09T03:19:34.143Z,11.20
2023-05-09T03:23:36.681Z,11.10
2023-05-09T03:27:38.890Z,11.20
2023-05-09T03:31:44.432Z,11.10
2023-05-09T03:35:46.638Z,11.20
2023-05-09T03:39:48.788Z,11.10
2023-05-09T03:43:51.032Z,11.10
2023-05-09T03:47:53.138Z,11.00
2023-05-09T03:51:55.382Z,10.90
2023-05-09T03:55:57.447Z,10.90
2023-05-09T04:00:00.947Z,11.10
2023-05-09T04:04:03.282Z,11.00
2023-05-09T04:08:08.454Z,11.00
2023-05-09T04:12:10.458Z,11.10
2023-05-09T04:16:12.452Z,11.10
2023-05-09T04:20:15.180Z,11.10
2023-05-09T04:24:18.424Z,11.10
2023-05-09T04:28:22.741Z,11.30
2023-05-09T04:32:24.925Z,11.40
2023-05-09T04:36:27.777Z,11.50
2023-05-09T04:40:33.164Z,11.50
2023-05-09T04:44:36.232Z,11.30
2023-05-09T04:48:38.901Z,11.30
2023-05-09T04:52:41.022Z,11.40
2023-05-09T04:56:43.042Z,11.50
2023-05-09T05:00:45.508Z,11.50
2023-05-09T05:04:48.279Z,11.50
2023-05-09T05:08:50.882Z,11.30
2023-05-09T05:12:53.009Z,11.20
2023-05-09T05:16:54.976Z,11.40
2023-05-09T05:20:58.484Z,11.30
2023-05-09T05:25:00.991Z,11.50
2023-05-09T05:29:03.181Z,11.60
2023-05-09T05:33:05.400Z,11.60
2023-05-09T05:37:07.876Z,11.50
2023-05-09T05:41:11.388Z,11.60
2023-05-09T05:45:15.775Z,11.70
2023-05-09T05:49:22.515Z,11.70
2023-05-09T05:53:24.886Z,11.80
2023-05-09T05:57:27.210Z,11.60
2023-05-09T06:01:29.839Z,11.50
2023-05-09T06:05:33.796Z,11.50
2023-05-09T06:09:35.827Z,11.60
2023-05-09T06:13:37.835Z,11.70
2023-05-09T06:17:41.754Z,11.50
2023-05-09T06:21:44.107Z,11.50
2023-05-09T06:25:46.204Z,11.30
2023-05-09T06:29:48.302Z,11.10
2023-05-09T06:33:50.438Z,11.40
2023-05-09T06:37:52.485Z,11.30
2023-05-09T06:41:54.403Z,11.30
2023-05-09T06:46:05.858Z,11.10
2023-05-09T06:50:08.879Z,11.30
2023-05-09T06:54:10.870Z,11.10
2023-05-09T06:58:12.743Z,10.60
2023-05-09T07:02:14.608Z,11.10
2023-05-09T07:06:17.775Z,10.90
2023-05-09T07:10:19.751Z,10.30
2023-05-09T07:14:21.742Z,10.40
2023-05-09T07:18:23.958Z,11.30
2023-05-09T07:22:26.023Z,11.80
2023-05-09T07:26:28.120Z,11.20
2023-05-09T07:30:30.140Z,11.70
2023-05-09T07:34:32.035Z,12.30
2023-05-09T07:38:34.109Z,12.40
2023-05-09T07:42:36.295Z,12.40
2023-05-09T07:46:40.959Z,12.60
2023-05-09T07:50:43.055Z,12.90
2023-05-09T07:54:45.040Z,13.00
2023-05-09T07:58:46.947Z,13.40
2023-05-09T08:02:49.204Z,13.40
2023-05-09T08:06:51.481Z,13.30
2023-05-09T08:10:53.448Z,13.50
2023-05-09T08:14:55.243Z,13.20
2023-05-09T08:18:57.105Z,13.40
2023-05-09T08:22:59.072Z,13.30
2023-05-09T08:27:01.534Z,13.00
2023-05-09T08:31:03.728Z,13.40
2023-05-09T08:35:06.853Z,13.70
2023-05-09T08:39:09.842Z,13.90
2023-05-09T08:43:13.065Z,13.90
2023-05-09T08:47:15.602Z,13.70
2023-05-09T08:51:17.910Z,13.50
2023-05-09T08:55:20.400Z,13.80
2023-05-09T08:59:22.495Z,14.20
2023-05-09T09:03:27.704Z,14.20
2023-05-09T09:07:33.752Z,13.90
2023-05-09T09:11:40.457Z,14.40
2023-05-09T09:15:45.367Z,14.20
2023-05-09T09:19:50.773Z,14.10
2023-05-09T09:23:55.106Z,14.10
2023-05-09T09:27:57.194Z,14.10
2023-05-09T09:32:02.933Z,14.20
2023-05-09T09:36:06.082Z,14.30
2023-05-09T09:40:10.119Z,14.20
2023-05-09T09:44:22.662Z,14.60
2023-05-09T09:48:26.406Z,14.40
2023-05-09T09:52:28.411Z,14.60
2023-05-09T09:56:47.239Z,14.90
2023-05-09T10:01:11.243Z,14.80
2023-05-09T10:05:25.469Z,14.90
2023-05-09T10:09:28.391Z,15.10
2023-05-09T10:13:30.654Z,14.80
2023-05-09T10:17:33.268Z,15.20
2023-05-09T10:21:37.921Z,14.90
2023-05-09T10:25:47.442Z,15.10
2023-05-09T10:30:07.087Z,15.30
2023-05-09T10:34:12.238Z,15.40
2023-05-09T10:38:14.438Z,15.60
2023-05-09T10:42:16.450Z,15.50
2023-05-09T10:46:18.939Z,15.70
2023-05-09T10:50:21.578Z,15.60
2023-05-09T10:54:32.311Z,15.90
2023-05-09T10:58:37.441Z,15.90
2023-05-09T11:02:39.391Z,16.00
2023-05-09T11:06:45.238Z,16.20
2023-05-09T11:10:47.701Z,16.40
2023-05-09T11:14:56.087Z,16.40
2023-05-09T11:18:58.000Z,16.50
2023-05-09T11:23:01.188Z,15.90
2023-05-09T11:27:14.451Z,16.20
2023-05-09T11:31:18.356Z,16.00
2023-05-09T11:35:22.041Z,16.10
2023-05-09T11:39:27.198Z,16.30
2023-05-09T11:43:29.657Z,16.20
2023-05-09T11:47:31.710Z,16.50
2023-05-09T11:51:37.469Z,16.80
2023-05-09T11:55:41.530Z,16.80
2023-05-09T11:59:45.428Z,16.70
2023-05-09T12:03:48.153Z,17.00
2023-05-09T12:07:50.993Z,17.30
2023-05-09T12:11:53.058Z,16.70
2023-05-09T12:16:01.491Z,17.00
2023-05-09T12:20:07.017Z,17.70
2023-05-09T12:24:09.005Z,17.80
2023-05-09T12:28:11.252Z,17.90
2023-05-09T12:32:15.481Z,17.70
2023-05-09T12:36:17.645Z,17.60
2023-05-09T12:40:19.477Z,17.50
2023-05-09T12:44:29.724Z,16.70
2023-05-09T12:48:38.082Z,17.10
2023-05-09T12:52:54.560Z,17.60
2023-05-09T12:57:05.602Z,17.90
2023-05-09T13:01:07.613Z,17.40
2023-05-09T13:05:19.922Z,17.20
2023-05-09T13:09:23.164Z,17.40
2023-05-09T13:13:28.785Z,17.70
2023-05-09T13:17:30.913Z,17.60
2023-05-09T13:21:34.048Z,17.90
2023-05-09T13:25:36.076Z,18.20
2023-05-09T13:29:38.439Z,18.00
2023-05-09T13:33:41.036Z,18.00
2023-05-09T13:37:43.694Z,17.90
2023-05-09T13:41:45.867Z,17.90
2023-05-09T13:45:47.915Z,18.10
2023-05-09T13:49:49.906Z,18.50
2023-05-09T13:53:52.116Z,18.20
2023-05-09T13:57:53.997Z,18.30
2023-05-09T14:01:58.788Z,18.40
2023-05-09T14:06:00.799Z,18.10
2023-05-09T14:14:09.450Z,18.20
2023-05-09T14:18:15.875Z,18.20
2023-05-09T14:22:19.165Z,18.10
2023-05-09T14:26:22.241Z,18.20
2023-05-09T14:30:25.651Z,18.10
2023-05-09T14:34:27.841Z,17.90
2023-05-09T14:38:29.845Z,17.80
2023-05-09T14:42:32.806Z,17.70
2023-05-09T14:46:35.780Z,17.50
2023-05-09T14:50:37.871Z,18.10
2023-05-09T14:54:40.044Z,18.00
2023-05-09T14:58:42.272Z,18.50
2023-05-09T15:02:44.238Z,18.50
2023-05-09T15:06:46.330Z,18.20
2023-05-09T15:10:48.287Z,18.30
2023-05-09T15:14:53.737Z,18.20
2023-05-09T15:18:56.401Z,18.40
2023-05-09T15:22:58.410Z,18.60
2023-05-09T15:27:00.624Z,18.60
2023-05-09T15:31:03.425Z,18.50
2023-05-09T15:35:06.865Z,18.50
2023-05-09T15:39:08.944Z,18.30
2023-05-09T15:43:10.881Z,18.10
2023-05-09T15:47:13.215Z,18.60
2023-05-09T15:51:15.431Z,18.50
2023-05-09T15:55:17.968Z,18.40
2023-05-09T15:59:19.989Z,18.60
2023-05-09T16:03:23.204Z,18.80
2023-05-09T16:07:26.922Z,18.80
2023-05-09T16:11:28.946Z,18.40
2023-05-09T16:15:30.940Z,18.80
2023-05-09T16:19:35.739Z,18.90
2023-05-09T16:23:39.574Z,18.80
2023-05-09T16:27:41.621Z,18.80
2023-05-09T16:31:44.936Z,18.80
2023-05-09T16:35:47.560Z,18.70
2023-05-09T16:39:50.001Z,18.80
2023-05-09T16:43:51.984Z,18.70
2023-05-09T16:47:55.561Z,18.80
2023-05-09T16:51:58.141Z,18.80
2023-05-09T16:56:00.555Z,18.60
2023-05-09T17:00:03.125Z,18.40
2023-05-09T17:04:06.863Z,18.50
2023-05-09T17:08:08.963Z,18.60
2023-05-09T17:12:17.456Z,18.50
2023-05-09T17:16:19.781Z,18.20
2023-05-09T17:20:21.898Z,17.90
2023-05-09T17:24:23.808Z,18.10
2023-05-09T17:28:25.867Z,18.20
2023-05-09T17:32:28.204Z,18.00
2023-05-09T17:36:30.292Z,18.00
2023-05-09T17:40:32.291Z,17.90
2023-05-09T17:44:34.480Z,17.90
2023-05-09T17:48:36.495Z,18.00
2023-05-09T17:52:38.723Z,17.90
2023-05-09T17:56:40.842Z,17.80
2023-05-09T18:00:43.082Z,17.80
2023-05-09T18:04:46.338Z,17.70
2023-05-09T18:08:48.398Z,17.70
2023-05-09T18:12:50.922Z,17.00
2023-05-09T18:16:52.955Z,17.00
2023-05-09T18:20:56.851Z,17.30
2023-05-09T18:24:59.285Z,17.30
2023-05-09T18:29:01.618Z,17.20
2023-05-09T18:33:03.828Z,17.00
2023-05-09T18:37:07.063Z,16.70
2023-05-09T18:41:10.935Z,17.10
2023-05-09T18:45:13.421Z,17.20
2023-05-09T18:49:15.592Z,17.30
2023-05-09T18:53:18.162Z,17.30
2023-05-09T18:57:20.952Z,17.20
2023-05-09T19:01:24.538Z,16.70
2023-05-09T19:05:27.432Z,15.90
2023-05-09T19:09:30.685Z,15.20
2023-05-09T19:13:36.828Z,14.50
2023-05-09T19:17:39.052Z,13.80
2023-05-09T19:21:40.972Z,13.30
2023-05-09T19:25:42.984Z,13.40
2023-05-09T19:29:45.169Z,13.70
2023-05-09T19:33:47.836Z,13.50
2023-05-09T19:37:50.130Z,13.70
2023-05-09T19:41:52.556Z,13.80
2023-05-09T19:45:54.655Z,13.60
2023-05-09T19:49:56.591Z,13.80
2023-05-09T19:53:58.943Z,13.70
2023-05-09T19:58:00.808Z,13.70
2023-05-09T20:02:03.256Z,13.50
2023-05-09T20:06:05.804Z,13.50
2023-05-09T20:10:08.390Z,13.30
2023-05-09T20:14:10.393Z,13.50
2023-05-09T20:18:12.415Z,13.60
2023-05-09T20:22:14.212Z,13.60
2023-05-09T20:26:16.259Z,13.80
2023-05-09T20:30:18.284Z,14.10
2023-05-09T20:34:22.110Z,14.00
2023-05-09T20:38:24.245Z,13.90
2023-05-09T20:42:26.211Z,13.90
2023-05-09T20:46:28.138Z,14.10
2023-05-09T20:50:30.185Z,14.20
2023-05-09T20:54:32.050Z,14.40
2023-05-09T20:58:34.598Z,14.30
2023-05-09T21:02:36.661Z,14.40
2023-05-09T21:06:38.832Z,14.30
2023-05-09T21:10:41.182Z,14.40
2023-05-09T21:14:44.636Z,14.40
2023-05-09T21:18:46.633Z,14.40
2023-05-09T21:22:48.538Z,14.10
2023-05-09T21:26:51.271Z,13.90
2023-05-09T21:30:54.016Z,14.20
2023-05-09T21:34:56.240Z,14.30
2023-05-09T21:38:58.280Z,14.00
2023-05-09T21:43:00.210Z,14.10
2023-05-09T21:47:02.415Z,14.30
2023-05-09T21:51:04.707Z,14.30
2023-05-09T21:55:06.760Z,14.30
2023-05-09T21:59:09.318Z,14.30
2023-05-09T22:03:11.459Z,14.40
2023-05-09T22:07:13.465Z,14.50
2023-05-09T22:11:16.036Z,14.50
2023-05-09T22:15:18.304Z,14.30
2023-05-09T22:19:20.350Z,14.40
2023-05-09T22:23:22.388Z,14.40
2023-05-09T22:27:24.452Z,14.40
2023-05-09T22:31:26.787Z,14.30
2023-05-09T22:35:28.853Z,14.30
2023-05-09T22:39:31.046Z,14.20
2023-05-09T22:43:38.682Z,14.20
2023-05-09T22:47:41.421Z,14.20
2023-05-09T22:51:43.477Z,14.10
2023-05-09T22:55:45.512Z,13.90
2023-05-09T22:59:47.447Z,13.80
2023-05-09T23:03:49.241Z,14.10
2023-05-09T23:07:51.976Z,13.90
2023-05-09T23:11:54.940Z,13.80
2023-05-09T23:15:56.763Z,13.90
2023-05-09T23:20:00.651Z,13.80
2023-05-09T23:24:03.563Z,13.80
2023-05-09T23:28:05.572Z,13.90
2023-05-09T23:32:07.622Z,13.90
2023-05-09T23:36:09.832Z,14.00
2023-05-09T23:40:12.576Z,13.80
2023-05-09T23:44:14.816Z,13.80
2023-05-09T23:48:16.783Z,13.90
2023-05-09T23:52:18.827Z,14.10
2023-05-09T23:56:21.497Z,14.10
